createdAt,value
2022-09-11T00:00:40.067Z,5.93
2022-09-11T00:03:54.466Z,6.65
2022-09-11T02:01:46.284Z,30.65
2022-09-11T02:05:04.140Z,25.20
2022-09-11T02:41:35.167Z,25.42
2022-09-11T03:22:38.060Z,26.00
2022-09-11T03:31:51.310Z,25.88
2022-09-11T03:41:22.021Z,23.30
2022-09-11T04:00:45.853Z,23.65
2022-09-11T04:03:16.910Z,21.98
2022-09-11T04:05:55.635Z,20.58
2022-09-11T04:09:04.939Z,21.20
2022-09-11T04:15:12.854Z,25.70
2022-09-11T04:37:51.173Z,25.13
2022-09-11T04:40:17.754Z,29.40
2022-09-11T04:42:44.328Z,27.25
2022-09-11T04:45:11.252Z,27.65
2022-09-11T04:47:37.892Z,36.83
2022-09-11T04:50:08.076Z,33.85
2022-09-11T05:38:35.836Z,42.38
2022-09-11T05:55:38.529Z,36.22
2022-09-11T05:58:07.989Z,34.95
2022-09-11T06:01:17.722Z,34.78
2022-09-11T06:03:44.503Z,39.83
2022-09-11T06:10:28.260Z,34.33
2022-09-11T06:21:55.177Z,37.85
2022-09-11T06:35:11.183Z,36.22
2022-09-11T06:40:45.654Z,35.85
2022-09-11T06:43:13.788Z,36.10
2022-09-11T06:45:41.621Z,34.33
2022-09-11T06:48:11.520Z,34.30
2022-09-11T06:50:41.462Z,37.85
2022-09-11T06:53:08.956Z,29.67
2022-09-11T06:55:44.872Z,32.60
2022-09-11T06:58:11.901Z,34.22
2022-09-11T07:00:38.514Z,38.38
2022-09-11T07:03:05.500Z,34.83
2022-09-11T07:05:33.920Z,37.63
2022-09-11T07:08:07.884Z,31.45
2022-09-11T07:10:34.825Z,32.63
2022-09-11T07:13:01.442Z,29.42
2022-09-11T07:16:04.099Z,35.75
2022-09-11T07:18:38.637Z,29.88
2022-09-11T07:21:34.916Z,27.75
2022-09-11T07:32:24.541Z,34.65
2022-09-11T07:49:39.270Z,33.13
2022-09-11T07:52:06.727Z,36.50
2022-09-11T07:54:33.466Z,36.85
2022-09-11T07:57:00.210Z,38.63
2022-09-11T07:59:27.825Z,41.35
2022-09-11T08:01:55.632Z,39.13
2022-09-11T08:04:22.459Z,36.63
2022-09-11T08:06:49.396Z,36.83
2022-09-11T08:09:16.265Z,40.83
2022-09-11T08:11:45.896Z,30.55
2022-09-11T08:14:13.479Z,33.33
2022-09-11T08:16:40.784Z,35.13
2022-09-11T08:19:10.085Z,26.15
2022-09-11T08:22:27.119Z,31.30
2022-09-11T08:24:56.182Z,28.08
2022-09-11T08:27:23.366Z,28.38
2022-09-11T08:29:49.958Z,30.00
2022-09-11T08:32:23.795Z,33.72
2022-09-11T08:34:50.542Z,30.23
2022-09-11T08:37:20.346Z,28.48
2022-09-11T08:39:47.712Z,23.50
2022-09-11T08:42:16.516Z,33.85
2022-09-11T08:44:51.467Z,29.50
2022-09-11T08:47:25.667Z,26.88
2022-09-11T08:52:22.097Z,29.52
2022-09-11T08:54:49.360Z,29.83
2022-09-11T08:57:25.133Z,26.15
2022-09-11T08:59:58.153Z,29.42
2022-09-11T09:03:02.522Z,32.05
2022-09-11T09:05:53.543Z,31.67
2022-09-11T09:08:31.614Z,23.85
2022-09-11T09:11:25.879Z,26.50
2022-09-11T09:14:07.325Z,22.40
2022-09-11T09:16:45.940Z,20.00
2022-09-11T09:19:39.152Z,17.85
2022-09-11T09:22:20.850Z,21.02
2022-09-11T09:25:00.590Z,18.33
2022-09-11T09:27:36.788Z,17.15
2022-09-11T09:30:06.884Z,17.05
2022-09-11T09:32:42.087Z,18.02
2022-09-11T09:35:45.429Z,13.88
2022-09-11T09:38:25.088Z,15.55
2022-09-11T09:41:02.113Z,14.10
2022-09-11T09:43:50.081Z,15.52
2022-09-11T09:46:22.139Z,16.48
2022-09-11T09:48:50.020Z,14.38
2022-09-11T09:51:17.320Z,12.88
2022-09-11T09:54:18.511Z,13.25
2022-09-11T09:56:57.239Z,11.23
2022-09-11T09:59:50.920Z,12.13
2022-09-11T10:02:41.621Z,15.48
2022-09-11T10:05:19.260Z,14.23
2022-09-11T10:07:48.333Z,13.40
2022-09-11T10:10:38.381Z,10.77
2022-09-11T10:13:21.250Z,12.73
2022-09-11T10:15:53.871Z,11.23
2022-09-11T10:18:32.335Z,14.07
2022-09-11T10:21:33.493Z,10.77
2022-09-11T10:24:27.615Z,12.35
2022-09-11T10:26:56.004Z,13.15
2022-09-11T10:29:32.267Z,10.38
2022-09-11T10:32:03.515Z,21.10
2022-09-11T10:34:39.191Z,17.90
2022-09-11T10:37:13.990Z,12.10
2022-09-11T10:39:44.051Z,8.23
2022-09-11T10:42:23.553Z,9.65
2022-09-11T10:44:55.447Z,7.25
2022-09-11T10:47:30.283Z,7.00
2022-09-11T10:50:29.872Z,6.72
2022-09-11T10:53:04.349Z,6.45
2022-09-11T10:55:41.155Z,7.75
2022-09-11T10:58:19.133Z,8.55
2022-09-11T11:00:46.206Z,8.68
2022-09-11T11:03:19.367Z,7.28
2022-09-11T11:05:58.234Z,8.10
2022-09-11T11:08:34.449Z,9.70
2022-09-11T11:11:42.610Z,6.93
2022-09-11T11:14:27.205Z,7.47
2022-09-11T11:17:00.030Z,10.75
2022-09-11T11:19:44.848Z,7.93
2022-09-11T11:22:45.286Z,8.18
2022-09-11T11:25:42.636Z,15.95
2022-09-11T11:28:15.160Z,7.75
2022-09-11T11:31:23.892Z,12.00
2022-09-11T11:34:09.202Z,7.25
2022-09-11T11:37:00.718Z,6.57
2022-09-11T11:39:47.214Z,6.03
2022-09-11T11:42:29.661Z,7.22
2022-09-11T11:45:21.305Z,7.75
2022-09-11T11:47:51.143Z,4.90
2022-09-11T11:50:44.045Z,7.55
2022-09-11T11:53:28.559Z,6.95
2022-09-11T11:56:08.074Z,6.28
2022-09-11T11:58:53.903Z,5.60
2022-09-11T12:01:48.658Z,5.57
2022-09-11T12:04:49.630Z,4.97
2022-09-11T12:07:22.171Z,6.20
2022-09-11T12:09:51.237Z,5.50
2022-09-11T12:12:19.575Z,4.57
2022-09-11T12:15:02.302Z,8.05
2022-09-11T12:17:32.597Z,5.18
2022-09-11T12:20:11.468Z,4.35
2022-09-11T12:22:49.725Z,5.03
2022-09-11T12:25:19.337Z,5.97
2022-09-11T12:27:48.980Z,4.10
2022-09-11T12:30:18.587Z,6.28
2022-09-11T12:32:46.895Z,4.10
2022-09-11T12:35:29.725Z,3.75
2022-09-11T12:38:14.429Z,9.48
2022-09-11T12:40:48.155Z,4.15
2022-09-11T12:43:45.526Z,5.20
2022-09-11T12:46:21.294Z,3.75
2022-09-11T12:49:11.251Z,5.97
2022-09-11T12:51:51.007Z,5.90
2022-09-11T12:54:20.887Z,4.18
2022-09-11T12:56:51.285Z,6.68
2022-09-11T12:59:30.036Z,5.30
2022-09-11T13:01:57.449Z,5.95
2022-09-11T13:04:28.210Z,3.13
2022-09-11T13:07:05.324Z,3.85
2022-09-11T13:09:37.719Z,5.97
2022-09-11T13:12:25.317Z,5.05
2022-09-11T13:15:05.196Z,5.70
2022-09-11T13:17:34.137Z,10.68
2022-09-11T13:20:07.701Z,6.80
2022-09-11T13:22:34.601Z,6.47
2022-09-11T13:25:13.632Z,4.85
2022-09-11T13:28:01.291Z,6.20
2022-09-11T13:30:28.321Z,7.53
2022-09-11T13:33:08.352Z,7.25
2022-09-11T13:35:40.154Z,3.88
2022-09-11T13:38:12.989Z,5.18
2022-09-11T13:41:16.794Z,6.13
2022-09-11T13:43:48.485Z,6.60
2022-09-11T13:46:15.111Z,5.20
2022-09-11T13:48:45.869Z,4.72
2022-09-11T13:51:14.516Z,8.52
2022-09-11T13:53:44.353Z,8.20
2022-09-11T13:56:45.175Z,11.55
2022-09-11T13:59:32.942Z,7.90
2022-09-11T14:02:01.037Z,4.82
2022-09-11T14:04:29.257Z,6.00
2022-09-11T14:06:56.333Z,6.32
2022-09-11T14:09:23.457Z,4.90
2022-09-11T14:11:50.397Z,4.53
2022-09-11T14:14:26.228Z,4.40
2022-09-11T14:16:57.917Z,8.82
2022-09-11T14:19:27.754Z,5.45
2022-09-11T14:21:54.409Z,3.70
2022-09-11T14:24:34.875Z,4.88
2022-09-11T14:27:04.453Z,6.28
2022-09-11T14:29:35.053Z,3.83
2022-09-11T14:32:29.863Z,4.32
2022-09-11T14:34:56.589Z,5.65
2022-09-11T14:37:25.525Z,7.78
2022-09-11T14:39:56.664Z,4.70
2022-09-11T14:42:29.705Z,5.35
2022-09-11T14:44:58.079Z,5.60
2022-09-11T14:47:29.555Z,10.13
2022-09-11T14:49:59.539Z,4.18
2022-09-11T14:52:28.150Z,4.40
2022-09-11T14:55:00.554Z,3.17
2022-09-11T14:57:37.453Z,3.95
2022-09-11T15:00:04.507Z,4.15
2022-09-11T15:02:34.086Z,3.67
2022-09-11T15:05:00.628Z,5.18
2022-09-11T15:07:27.847Z,4.30
2022-09-11T15:09:54.870Z,3.75
2022-09-11T15:12:22.497Z,6.03
2022-09-11T15:14:58.447Z,4.30
2022-09-11T15:17:30.430Z,3.70
2022-09-11T15:20:00.218Z,3.05
2022-09-11T15:22:27.190Z,4.00
2022-09-11T15:24:54.426Z,3.53
2022-09-11T15:27:23.164Z,4.70
2022-09-11T15:29:49.758Z,5.70
2022-09-11T15:32:16.381Z,6.70
2022-09-11T15:34:45.234Z,2.78
2022-09-11T15:37:12.103Z,6.20
2022-09-11T15:39:39.082Z,4.80
2022-09-11T15:42:07.431Z,2.50
2022-09-11T15:44:36.016Z,2.78
2022-09-11T15:47:04.126Z,2.88
2022-09-11T15:49:31.707Z,3.10
2022-09-11T15:51:59.572Z,4.78
2022-09-11T15:54:27.073Z,3.63
2022-09-11T15:56:54.680Z,3.92
2022-09-11T15:59:21.870Z,5.78
2022-09-11T16:01:48.930Z,2.95
2022-09-11T16:04:21.816Z,3.15
2022-09-11T16:06:49.555Z,3.50
2022-09-11T16:09:19.179Z,6.43
2022-09-11T16:11:47.968Z,6.30
2022-09-11T16:14:22.204Z,3.08
2022-09-11T16:19:17.233Z,5.03
2022-09-11T16:21:43.907Z,3.17
2022-09-11T16:24:11.540Z,2.53
2022-09-11T16:26:41.764Z,5.07
2022-09-11T16:29:09.876Z,2.60
2022-09-11T16:31:36.517Z,2.13
2022-09-11T16:34:04.607Z,3.35
2022-09-11T16:36:38.240Z,3.45
2022-09-11T16:39:09.995Z,2.72
2022-09-11T16:41:37.150Z,3.13
2022-09-11T16:44:05.589Z,2.50
2022-09-11T16:46:33.409Z,2.95
2022-09-11T16:49:02.199Z,5.13
2022-09-11T16:51:30.049Z,6.68
2022-09-11T16:53:56.918Z,3.75
2022-09-11T16:56:24.358Z,2.50
2022-09-11T16:58:51.400Z,4.35
2022-09-11T17:01:22.677Z,3.80
2022-09-11T17:03:51.365Z,7.78
2022-09-11T17:06:20.604Z,5.25
2022-09-11T17:12:12.974Z,2.95
2022-09-11T17:14:41.845Z,4.47
2022-09-11T17:17:14.421Z,2.88
2022-09-11T17:19:41.740Z,4.82
2022-09-11T17:22:08.670Z,3.08
2022-09-11T17:24:35.802Z,3.45
2022-09-11T17:27:02.731Z,2.45
2022-09-11T17:29:29.317Z,3.90
2022-09-11T17:32:16.625Z,5.00
2022-09-11T17:34:42.739Z,2.85
2022-09-11T17:37:10.011Z,4.05
2022-09-11T17:39:36.632Z,3.50
2022-09-11T17:42:13.381Z,3.58
2022-09-11T17:44:41.398Z,3.45
2022-09-11T17:47:08.173Z,3.53
2022-09-11T17:49:34.767Z,2.80
2022-09-11T17:52:01.551Z,3.63
2022-09-11T17:54:28.334Z,3.13
2022-09-11T17:56:56.035Z,7.10
2022-09-11T17:59:23.509Z,3.00
2022-09-11T18:01:50.920Z,8.32
2022-09-11T18:04:18.247Z,2.10
2022-09-11T18:06:45.285Z,3.42
2022-09-11T18:09:16.378Z,2.47
2022-09-11T18:11:45.141Z,8.00
2022-09-11T18:14:13.768Z,4.15
2022-09-11T18:16:43.549Z,2.75
2022-09-11T18:19:10.646Z,7.65
2022-09-11T18:21:38.495Z,2.95
2022-09-11T18:24:07.411Z,4.15
2022-09-11T18:26:39.470Z,4.07
2022-09-11T18:29:10.412Z,3.17
2022-09-11T18:31:44.159Z,2.28
2022-09-11T18:34:12.900Z,5.50
2022-09-11T18:36:39.986Z,3.67
2022-09-11T18:39:09.996Z,5.32
2022-09-11T18:41:36.965Z,5.25
2022-09-11T18:44:10.873Z,3.30
2022-09-11T18:46:37.704Z,4.07
2022-09-11T18:49:05.007Z,5.28
2022-09-11T18:51:31.777Z,4.32
2022-09-11T18:54:00.137Z,5.90
2022-09-11T18:56:29.240Z,5.70
2022-09-11T18:58:56.356Z,4.85
2022-09-11T19:01:25.673Z,6.60
2022-09-11T19:04:05.412Z,6.18
2022-09-11T19:06:34.987Z,5.63
2022-09-11T19:09:10.415Z,4.70
2022-09-11T19:11:37.373Z,4.30
2022-09-11T19:14:07.100Z,5.13
2022-09-11T19:16:34.418Z,4.22
2022-09-11T19:19:01.322Z,5.57
2022-09-11T19:21:28.479Z,3.17
2022-09-11T19:24:00.658Z,4.07
2022-09-11T19:26:30.442Z,5.00
2022-09-11T19:28:57.686Z,4.03
2022-09-11T19:31:27.588Z,4.50
2022-09-11T19:33:55.439Z,8.45
2022-09-11T19:36:24.585Z,6.03
2022-09-11T19:38:52.836Z,9.02
2022-09-11T19:41:21.950Z,5.78
2022-09-11T19:43:49.594Z,9.45
2022-09-11T19:46:21.497Z,6.13
2022-09-11T19:48:48.737Z,6.35
2022-09-11T19:51:27.315Z,7.18
2022-09-11T19:53:56.190Z,9.30
2022-09-11T19:56:23.598Z,8.00
2022-09-11T19:58:51.166Z,8.38
2022-09-11T20:01:24.574Z,5.90
2022-09-11T20:03:53.242Z,7.75
2022-09-11T20:06:22.103Z,5.10
2022-09-11T20:08:55.985Z,7.60
2022-09-11T20:11:34.817Z,5.80
2022-09-11T20:14:01.527Z,6.45
2022-09-11T20:16:29.237Z,10.70
2022-09-11T20:18:57.628Z,7.68
2022-09-11T20:21:24.650Z,7.25
2022-09-11T20:23:55.426Z,9.57
2022-09-11T20:26:25.842Z,8.73
2022-09-11T20:28:55.079Z,6.10
2022-09-11T20:31:31.440Z,7.20
2022-09-11T20:34:00.589Z,5.00
2022-09-11T20:36:29.802Z,7.30
2022-09-11T20:38:58.250Z,8.95
2022-09-11T20:41:29.607Z,8.43
2022-09-11T20:43:57.647Z,5.68
2022-09-11T20:46:24.414Z,6.93
2022-09-11T20:48:52.833Z,6.45
2022-09-11T20:51:20.716Z,6.55
2022-09-11T20:53:48.329Z,5.55
2022-09-11T20:56:18.484Z,6.38
2022-09-11T20:58:45.311Z,8.15
2022-09-11T21:01:19.125Z,4.03
2022-09-11T21:03:49.084Z,8.85
2022-09-11T21:06:16.224Z,8.93
2022-09-11T21:08:44.263Z,8.00
2022-09-11T21:11:12.101Z,5.32
2022-09-11T21:13:40.752Z,8.57
2022-09-11T21:16:13.071Z,5.40
2022-09-11T21:18:44.663Z,7.65
2022-09-11T21:21:11.327Z,6.32
2022-09-11T21:23:37.896Z,8.13
2022-09-11T21:26:08.074Z,6.45
2022-09-11T21:28:34.822Z,5.45
2022-09-11T21:31:01.454Z,4.72
2022-09-11T21:33:30.832Z,8.13
2022-09-11T21:35:57.465Z,6.93
2022-09-11T21:38:28.490Z,7.38
2022-09-11T21:40:56.981Z,6.60
2022-09-11T21:43:23.970Z,6.40
2022-09-11T21:45:50.628Z,4.53
2022-09-11T21:48:17.244Z,4.45
2022-09-11T21:50:43.807Z,9.07
2022-09-11T21:53:11.377Z,7.45
2022-09-11T21:55:39.324Z,7.55
2022-09-11T21:58:06.703Z,7.65
2022-09-11T22:00:42.057Z,6.05
2022-09-11T22:03:13.852Z,5.03
2022-09-11T22:05:43.029Z,4.93
2022-09-11T22:08:16.626Z,4.97
2022-09-11T22:10:45.072Z,7.93
2022-09-11T22:13:11.924Z,7.70
2022-09-11T22:15:46.287Z,5.40
2022-09-11T22:18:13.485Z,4.82
2022-09-11T22:20:40.952Z,7.85
2022-09-11T22:23:13.265Z,13.18
2022-09-11T22:25:40.822Z,8.68
2022-09-11T22:28:07.657Z,5.32
2022-09-11T22:30:34.620Z,5.25
2022-09-11T22:33:02.433Z,3.17
2022-09-11T22:35:29.089Z,3.95
2022-09-11T22:37:55.770Z,5.85
2022-09-11T22:40:22.332Z,6.28
2022-09-11T22:42:49.774Z,5.78
2022-09-11T22:45:16.405Z,9.95
2022-09-11T22:47:42.992Z,8.88
2022-09-11T22:50:10.129Z,5.10
2022-09-11T22:52:37.359Z,6.53
2022-09-11T22:55:06.070Z,4.28
2022-09-11T22:57:34.984Z,5.80
2022-09-11T23:00:02.422Z,6.15
2022-09-11T23:02:29.086Z,6.28
2022-09-11T23:05:14.633Z,7.43
2022-09-11T23:07:42.209Z,6.07
2022-09-11T23:10:09.932Z,7.07
2022-09-11T23:12:37.389Z,6.25
2022-09-11T23:15:04.394Z,3.50
2022-09-11T23:17:30.965Z,6.03
2022-09-11T23:19:57.628Z,5.03
2022-09-11T23:22:26.394Z,3.35
2022-09-11T23:24:53.340Z,4.40
2022-09-11T23:27:20.521Z,4.38
2022-09-11T23:29:47.354Z,6.10
2022-09-11T23:32:13.971Z,4.68
2022-09-11T23:34:40.560Z,9.60
2022-09-11T23:37:07.224Z,3.80
2022-09-11T23:39:33.893Z,6.28
2022-09-11T23:42:00.469Z,5.05
2022-09-11T23:44:27.471Z,5.72
2022-09-11T23:46:54.346Z,6.43
2022-09-11T23:49:21.257Z,8.70
2022-09-11T23:51:49.042Z,7.43
2022-09-11T23:54:16.250Z,3.20
2022-09-11T23:56:42.955Z,5.38
2022-09-11T23:59:09.652Z,5.28
